sensor_id;sensor_type;location;lat;lon;timestamp;P1;durP1;ratioP1;P2;durP2;ratioP2
30157;SDS011;21203;-33.912;151.178;2023-04-07T00:00:53;7.47;;;2.10;;
30157;SDS011;21203;-33.912;151.178;2023-04-07T00:03:23;3.52;;;1.77;;
30157;SDS011;21203;-33.912;151.178;2023-04-07T00:05:54;5.90;;;2.40;;
30157;SDS011;21203;-33.912;151.178;2023-04-07T00:08:25;8.08;;;1.67;;
30157;SDS011;21203;-33.912;151.178;2023-04-07T00:10:55;7.97;;;2.40;;
30157;SDS011;21203;-33.912;151.178;2023-04-07T00:13:26;3.60;;;2.00;;
30157;SDS011;21203;-33.912;151.178;2023-04-07T00:15:56;4.25;;;2.08;;
30157;SDS011;21203;-33.912;151.178;2023-04-07T00:18:27;6.37;;;2.12;;
30157;SDS011;21203;-33.912;151.178;2023-04-07T00:20:58;5.28;;;2.25;;
30157;SDS011;21203;-33.912;151.178;2023-04-07T00:23:28;5.17;;;2.50;;
30157;SDS011;21203;-33.912;151.178;2023-04-07T00:25:59;7.95;;;2.40;;
30157;SDS011;21203;-33.912;151.178;2023-04-07T00:28:29;6.70;;;2.37;;
30157;SDS011;21203;-33.912;151.178;2023-04-07T00:31:00;4.67;;;2.47;;
30157;SDS011;21203;-33.912;151.178;2023-04-07T00:33:31;7.53;;;2.08;;
30157;SDS011;21203;-33.912;151.178;2023-04-07T00:36:01;4.28;;;1.90;;
30157;SDS011;21203;-33.912;151.178;2023-04-07T00:38:31;6.60;;;2.50;;
30157;SDS011;21203;-33.912;151.178;2023-04-07T00:41:02;6.58;;;2.05;;
30157;SDS011;21203;-33.912;151.178;2023-04-07T00:43:32;5.92;;;2.50;;
30157;SDS011;21203;-33.912;151.178;2023-04-07T00:46:03;4.95;;;2.37;;
30157;SDS011;21203;-33.912;151.178;2023-04-07T00:48:33;4.33;;;2.30;;
30157;SDS011;21203;-33.912;151.178;2023-04-07T00:51:04;7.42;;;2.50;;
30157;SDS011;21203;-33.912;151.178;2023-04-07T00:53:35;3.35;;;2.22;;
30157;SDS011;21203;-33.912;151.178;2023-04-07T00:56:06;5.37;;;2.20;;
30157;SDS011;21203;-33.912;151.178;2023-04-07T00:58:36;5.30;;;2.10;;
30157;SDS011;21203;-33.912;151.178;2023-04-07T01:01:08;4.17;;;1.95;;
30157;SDS011;21203;-33.912;151.178;2023-04-07T01:03:43;4.92;;;2.17;;
30157;SDS011;21203;-33.912;151.178;2023-04-07T01:06:14;4.67;;;2.40;;
30157;SDS011;21203;-33.912;151.178;2023-04-07T01:14:02;4.40;;;2.10;;
30157;SDS011;21203;-33.912;151.178;2023-04-07T01:16:41;5.28;;;2.20;;
30157;SDS011;21203;-33.912;151.178;2023-04-07T01:22:15;3.15;;;1.62;;
30157;SDS011;21203;-33.912;151.178;2023-04-07T01:27:33;3.00;;;1.60;;
30157;SDS011;21203;-33.912;151.178;2023-04-07T01:30:03;3.50;;;1.70;;
30157;SDS011;21203;-33.912;151.178;2023-04-07T01:32:35;3.33;;;1.95;;
30157;SDS011;21203;-33.912;151.178;2023-04-07T01:35:09;4.53;;;1.90;;
30157;SDS011;21203;-33.912;151.178;2023-04-07T01:37:38;4.72;;;1.70;;
30157;SDS011;21203;-33.912;151.178;2023-04-07T01:40:11;4.75;;;1.72;;
30157;SDS011;21203;-33.912;151.178;2023-04-07T01:42:42;4.92;;;2.58;;
30157;SDS011;21203;-33.912;151.178;2023-04-07T01:45:14;5.60;;;2.10;;
30157;SDS011;21203;-33.912;151.178;2023-04-07T01:47:45;6.10;;;2.05;;
30157;SDS011;21203;-33.912;151.178;2023-04-07T01:50:17;4.08;;;2.15;;
30157;SDS011;21203;-33.912;151.178;2023-04-07T01:52:49;6.50;;;2.00;;
30157;SDS011;21203;-33.912;151.178;2023-04-07T01:55:20;5.28;;;2.12;;
30157;SDS011;21203;-33.912;151.178;2023-04-07T01:57:52;5.92;;;2.30;;
30157;SDS011;21203;-33.912;151.178;2023-04-07T02:00:22;4.78;;;2.08;;
30157;SDS011;21203;-33.912;151.178;2023-04-07T02:03:14;6.50;;;2.10;;
30157;SDS011;21203;-33.912;151.178;2023-04-07T02:06:03;3.87;;;1.70;;
30157;SDS011;21203;-33.912;151.178;2023-04-07T02:08:34;7.67;;;2.12;;
30157;SDS011;21203;-33.912;151.178;2023-04-07T02:11:07;3.33;;;1.65;;
30157;SDS011;21203;-33.912;151.178;2023-04-07T02:13:38;6.30;;;2.10;;
30157;SDS011;21203;-33.912;151.178;2023-04-07T02:16:10;7.08;;;1.77;;
30157;SDS011;21203;-33.912;151.178;2023-04-07T02:18:42;3.55;;;1.67;;
30157;SDS011;21203;-33.912;151.178;2023-04-07T02:21:14;8.10;;;1.62;;
30157;SDS011;21203;-33.912;151.178;2023-04-07T02:23:45;3.50;;;1.52;;
30157;SDS011;21203;-33.912;151.178;2023-04-07T02:26:16;10.82;;;1.77;;
30157;SDS011;21203;-33.912;151.178;2023-04-07T02:28:46;5.75;;;1.72;;
30157;SDS011;21203;-33.912;151.178;2023-04-07T02:31:17;5.45;;;1.60;;
30157;SDS011;21203;-33.912;151.178;2023-04-07T02:33:47;5.58;;;2.27;;
30157;SDS011;21203;-33.912;151.178;2023-04-07T02:36:18;7.45;;;2.35;;
30157;SDS011;21203;-33.912;151.178;2023-04-07T02:38:49;13.22;;;4.05;;
30157;SDS011;21203;-33.912;151.178;2023-04-07T02:41:19;10.10;;;3.37;;
30157;SDS011;21203;-33.912;151.178;2023-04-07T02:43:50;8.35;;;2.27;;
30157;SDS011;21203;-33.912;151.178;2023-04-07T02:46:20;5.05;;;1.92;;
30157;SDS011;21203;-33.912;151.178;2023-04-07T02:48:51;4.15;;;1.50;;
30157;SDS011;21203;-33.912;151.178;2023-04-07T02:51:21;5.17;;;1.27;;
30157;SDS011;21203;-33.912;151.178;2023-04-07T02:53:52;4.08;;;1.60;;
30157;SDS011;21203;-33.912;151.178;2023-04-07T02:56:23;5.45;;;2.70;;
30157;SDS011;21203;-33.912;151.178;2023-04-07T02:58:53;5.85;;;2.45;;
30157;SDS011;21203;-33.912;151.178;2023-04-07T03:01:23;4.65;;;2.30;;
30157;SDS011;21203;-33.912;151.178;2023-04-07T03:03:54;5.25;;;3.05;;
30157;SDS011;21203;-33.912;151.178;2023-04-07T03:06:25;11.15;;;4.40;;
30157;SDS011;21203;-33.912;151.178;2023-04-07T03:08:55;6.80;;;2.58;;
30157;SDS011;21203;-33.912;151.178;2023-04-07T03:11:26;6.62;;;2.12;;
30157;SDS011;21203;-33.912;151.178;2023-04-07T03:13:56;5.35;;;2.10;;
30157;SDS011;21203;-33.912;151.178;2023-04-07T03:16:27;5.37;;;1.90;;
30157;SDS011;21203;-33.912;151.178;2023-04-07T03:18:58;4.67;;;1.85;;
30157;SDS011;21203;-33.912;151.178;2023-04-07T03:21:28;5.60;;;1.62;;
30157;SDS011;21203;-33.912;151.178;2023-04-07T03:24:03;3.02;;;1.62;;
30157;SDS011;21203;-33.912;151.178;2023-04-07T03:26:34;3.35;;;1.42;;
30157;SDS011;21203;-33.912;151.178;2023-04-07T03:29:05;6.70;;;1.70;;
30157;SDS011;21203;-33.912;151.178;2023-04-07T03:31:35;3.15;;;1.52;;
30157;SDS011;21203;-33.912;151.178;2023-04-07T03:34:05;2.72;;;1.35;;
30157;SDS011;21203;-33.912;151.178;2023-04-07T03:36:36;4.67;;;1.27;;
30157;SDS011;21203;-33.912;151.178;2023-04-07T03:39:06;5.83;;;1.52;;
30157;SDS011;21203;-33.912;151.178;2023-04-07T03:41:37;3.25;;;1.60;;
30157;SDS011;21203;-33.912;151.178;2023-04-07T03:44:07;3.65;;;1.62;;
30157;SDS011;21203;-33.912;151.178;2023-04-07T03:46:38;5.25;;;1.90;;
30157;SDS011;21203;-33.912;151.178;2023-04-07T03:49:08;6.70;;;1.72;;
30157;SDS011;21203;-33.912;151.178;2023-04-07T03:51:38;6.28;;;2.37;;
30157;SDS011;21203;-33.912;151.178;2023-04-07T03:54:09;4.35;;;2.20;;
30157;SDS011;21203;-33.912;151.178;2023-04-07T03:56:39;5.42;;;1.50;;
30157;SDS011;21203;-33.912;151.178;2023-04-07T03:59:10;5.05;;;2.67;;
30157;SDS011;21203;-33.912;151.178;2023-04-07T04:01:40;4.58;;;1.65;;
30157;SDS011;21203;-33.912;151.178;2023-04-07T04:04:11;2.22;;;1.60;;
30157;SDS011;21203;-33.912;151.178;2023-04-07T04:06:42;4.28;;;1.60;;
30157;SDS011;21203;-33.912;151.178;2023-04-07T04:09:12;4.83;;;1.90;;
30157;SDS011;21203;-33.912;151.178;2023-04-07T04:11:42;3.62;;;1.80;;
30157;SDS011;21203;-33.912;151.178;2023-04-07T04:14:13;2.77;;;1.70;;
30157;SDS011;21203;-33.912;151.178;2023-04-07T04:16:44;3.65;;;2.08;;
30157;SDS011;21203;-33.912;151.178;2023-04-07T04:19:14;8.75;;;3.17;;
30157;SDS011;21203;-33.912;151.178;2023-04-07T04:21:45;4.72;;;2.30;;
30157;SDS011;21203;-33.912;151.178;2023-04-07T04:24:15;6.25;;;2.10;;
30157;SDS011;21203;-33.912;151.178;2023-04-07T04:26:46;3.27;;;1.82;;
30157;SDS011;21203;-33.912;151.178;2023-04-07T04:29:16;4.05;;;1.17;;
30157;SDS011;21203;-33.912;151.178;2023-04-07T04:31:47;3.22;;;1.60;;
30157;SDS011;21203;-33.912;151.178;2023-04-07T04:34:18;4.95;;;1.95;;
30157;SDS011;21203;-33.912;151.178;2023-04-07T04:36:48;3.47;;;1.60;;
30157;SDS011;21203;-33.912;151.178;2023-04-07T04:39:18;3.25;;;1.60;;
30157;SDS011;21203;-33.912;151.178;2023-04-07T04:41:49;3.80;;;1.57;;
30157;SDS011;21203;-33.912;151.178;2023-04-07T04:44:19;3.67;;;1.47;;
30157;SDS011;21203;-33.912;151.178;2023-04-07T04:46:50;4.62;;;1.60;;
30157;SDS011;21203;-33.912;151.178;2023-04-07T04:49:20;4.25;;;1.30;;
30157;SDS011;21203;-33.912;151.178;2023-04-07T04:51:51;2.45;;;1.27;;
30157;SDS011;21203;-33.912;151.178;2023-04-07T04:54:22;4.03;;;1.42;;
30157;SDS011;21203;-33.912;151.178;2023-04-07T04:56:52;1.95;;;1.20;;
30157;SDS011;21203;-33.912;151.178;2023-04-07T04:59:23;2.85;;;1.35;;
30157;SDS011;21203;-33.912;151.178;2023-04-07T05:01:53;2.75;;;2.02;;
30157;SDS011;21203;-33.912;151.178;2023-04-07T05:04:24;3.00;;;2.08;;
30157;SDS011;21203;-33.912;151.178;2023-04-07T05:06:54;2.92;;;1.50;;
30157;SDS011;21203;-33.912;151.178;2023-04-07T05:09:24;5.10;;;1.95;;
30157;SDS011;21203;-33.912;151.178;2023-04-07T05:11:55;3.72;;;1.80;;
30157;SDS011;21203;-33.912;151.178;2023-04-07T05:14:25;5.08;;;1.70;;
30157;SDS011;21203;-33.912;151.178;2023-04-07T05:16:55;3.47;;;1.57;;
30157;SDS011;21203;-33.912;151.178;2023-04-07T05:19:27;4.67;;;1.80;;
30157;SDS011;21203;-33.912;151.178;2023-04-07T05:21:57;5.67;;;1.90;;
30157;SDS011;21203;-33.912;151.178;2023-04-07T05:24:27;4.47;;;1.90;;
30157;SDS011;21203;-33.912;151.178;2023-04-07T05:26:58;5.15;;;2.12;;
30157;SDS011;21203;-33.912;151.178;2023-04-07T05:29:28;8.40;;;2.33;;
30157;SDS011;21203;-33.912;151.178;2023-04-07T05:31:59;6.53;;;2.20;;
30157;SDS011;21203;-33.912;151.178;2023-04-07T05:34:29;6.50;;;2.20;;
30157;SDS011;21203;-33.912;151.178;2023-04-07T05:37:00;8.70;;;2.52;;
30157;SDS011;21203;-33.912;151.178;2023-04-07T05:39:30;7.72;;;2.50;;
30157;SDS011;21203;-33.912;151.178;2023-04-07T05:42:00;8.35;;;2.67;;
30157;SDS011;21203;-33.912;151.178;2023-04-07T05:44:31;7.75;;;2.40;;
30157;SDS011;21203;-33.912;151.178;2023-04-07T05:47:01;10.38;;;2.35;;
30157;SDS011;21203;-33.912;151.178;2023-04-07T05:49:33;9.20;;;2.20;;
30157;SDS011;21203;-33.912;151.178;2023-04-07T05:52:04;7.45;;;2.25;;
30157;SDS011;21203;-33.912;151.178;2023-04-07T05:54:34;6.87;;;2.72;;
30157;SDS011;21203;-33.912;151.178;2023-04-07T05:57:11;9.15;;;2.75;;
30157;SDS011;21203;-33.912;151.178;2023-04-07T05:59:37;13.48;;;2.95;;
30157;SDS011;21203;-33.912;151.178;2023-04-07T06:02:07;13.93;;;3.15;;
30157;SDS011;21203;-33.912;151.178;2023-04-07T06:04:37;8.55;;;2.20;;
30157;SDS011;21203;-33.912;151.178;2023-04-07T06:07:08;7.50;;;2.50;;
30157;SDS011;21203;-33.912;151.178;2023-04-07T06:09:39;9.55;;;2.40;;
30157;SDS011;21203;-33.912;151.178;2023-04-07T06:12:09;10.82;;;2.30;;
30157;SDS011;21203;-33.912;151.178;2023-04-07T06:14:41;13.05;;;3.00;;
30157;SDS011;21203;-33.912;151.178;2023-04-07T06:17:11;9.70;;;2.35;;
30157;SDS011;21203;-33.912;151.178;2023-04-07T06:19:41;7.70;;;2.37;;
30157;SDS011;21203;-33.912;151.178;2023-04-07T06:22:12;7.75;;;2.60;;
30157;SDS011;21203;-33.912;151.178;2023-04-07T06:24:42;11.12;;;2.98;;
30157;SDS011;21203;-33.912;151.178;2023-04-07T06:27:13;12.10;;;2.90;;
30157;SDS011;21203;-33.912;151.178;2023-04-07T06:29:44;10.38;;;3.17;;
30157;SDS011;21203;-33.912;151.178;2023-04-07T06:32:34;11.18;;;3.12;;
30157;SDS011;21203;-33.912;151.178;2023-04-07T06:35:04;6.97;;;2.70;;
30157;SDS011;21203;-33.912;151.178;2023-04-07T06:37:35;10.93;;;3.65;;
30157;SDS011;21203;-33.912;151.178;2023-04-07T06:40:06;10.75;;;3.80;;
30157;SDS011;21203;-33.912;151.178;2023-04-07T06:42:37;11.75;;;3.75;;
30157;SDS011;21203;-33.912;151.178;2023-04-07T06:45:08;5.97;;;3.33;;
30157;SDS011;21203;-33.912;151.178;2023-04-07T06:47:38;8.70;;;3.37;;
30157;SDS011;21203;-33.912;151.178;2023-04-07T06:50:09;11.78;;;3.40;;
30157;SDS011;21203;-33.912;151.178;2023-04-07T06:52:39;7.20;;;2.95;;
30157;SDS011;21203;-33.912;151.178;2023-04-07T06:55:09;6.72;;;3.05;;
30157;SDS011;21203;-33.912;151.178;2023-04-07T06:57:40;10.32;;;3.52;;
30157;SDS011;21203;-33.912;151.178;2023-04-07T07:00:11;7.87;;;2.55;;
30157;SDS011;21203;-33.912;151.178;2023-04-07T07:02:41;7.85;;;2.65;;
30157;SDS011;21203;-33.912;151.178;2023-04-07T07:05:12;7.53;;;2.47;;
30157;SDS011;21203;-33.912;151.178;2023-04-07T07:07:42;8.13;;;2.20;;
30157;SDS011;21203;-33.912;151.178;2023-04-07T07:10:12;10.43;;;2.33;;
30157;SDS011;21203;-33.912;151.178;2023-04-07T07:12:43;7.22;;;2.40;;
30157;SDS011;21203;-33.912;151.178;2023-04-07T07:15:13;3.58;;;2.10;;
30157;SDS011;21203;-33.912;151.178;2023-04-07T07:17:48;6.53;;;2.72;;
30157;SDS011;21203;-33.912;151.178;2023-04-07T07:20:22;6.33;;;2.33;;
30157;SDS011;21203;-33.912;151.178;2023-04-07T07:22:53;8.55;;;2.22;;
30157;SDS011;21203;-33.912;151.178;2023-04-07T07:25:24;12.85;;;3.60;;
30157;SDS011;21203;-33.912;151.178;2023-04-07T07:27:54;5.40;;;2.40;;
30157;SDS011;21203;-33.912;151.178;2023-04-07T07:30:24;5.22;;;2.33;;
30157;SDS011;21203;-33.912;151.178;2023-04-07T07:32:55;7.97;;;2.85;;
30157;SDS011;21203;-33.912;151.178;2023-04-07T07:35:25;6.42;;;2.70;;
30157;SDS011;21203;-33.912;151.178;2023-04-07T07:37:55;7.70;;;2.72;;
30157;SDS011;21203;-33.912;151.178;2023-04-07T07:40:27;4.97;;;2.25;;
30157;SDS011;21203;-33.912;151.178;2023-04-07T07:42:57;7.15;;;2.08;;
30157;SDS011;21203;-33.912;151.178;2023-04-07T07:45:28;6.45;;;2.52;;
30157;SDS011;21203;-33.912;151.178;2023-04-07T07:47:58;6.85;;;1.70;;
30157;SDS011;21203;-33.912;151.178;2023-04-07T07:50:29;3.87;;;1.72;;
30157;SDS011;21203;-33.912;151.178;2023-04-07T07:52:59;3.33;;;1.98;;
30157;SDS011;21203;-33.912;151.178;2023-04-07T07:55:29;4.00;;;1.80;;
30157;SDS011;21203;-33.912;151.178;2023-04-07T07:58:00;3.55;;;1.90;;
30157;SDS011;21203;-33.912;151.178;2023-04-07T08:00:30;2.55;;;1.77;;
30157;SDS011;21203;-33.912;151.178;2023-04-07T08:03:00;4.33;;;2.30;;
30157;SDS011;21203;-33.912;151.178;2023-04-07T08:05:31;2.80;;;1.62;;
30157;SDS011;21203;-33.912;151.178;2023-04-07T08:08:01;3.17;;;1.50;;
30157;SDS011;21203;-33.912;151.178;2023-04-07T08:10:32;3.17;;;1.60;;
30157;SDS011;21203;-33.912;151.178;2023-04-07T08:13:02;4.90;;;1.62;;
30157;SDS011;21203;-33.912;151.178;2023-04-07T08:15:33;3.10;;;1.70;;
30157;SDS011;21203;-33.912;151.178;2023-04-07T08:18:03;4.83;;;2.05;;
30157;SDS011;21203;-33.912;151.178;2023-04-07T08:20:34;3.30;;;1.70;;
30157;SDS011;21203;-33.912;151.178;2023-04-07T08:23:04;2.92;;;1.85;;
30157;SDS011;21203;-33.912;151.178;2023-04-07T08:25:35;3.87;;;2.20;;
30157;SDS011;21203;-33.912;151.178;2023-04-07T08:28:06;4.05;;;2.47;;
30157;SDS011;21203;-33.912;151.178;2023-04-07T08:30:37;4.47;;;2.10;;
30157;SDS011;21203;-33.912;151.178;2023-04-07T08:33:07;5.58;;;2.15;;
30157;SDS011;21203;-33.912;151.178;2023-04-07T08:35:37;3.62;;;2.20;;
30157;SDS011;21203;-33.912;151.178;2023-04-07T08:38:08;4.35;;;2.17;;
30157;SDS011;21203;-33.912;151.178;2023-04-07T08:40:39;3.47;;;2.00;;
30157;SDS011;21203;-33.912;151.178;2023-04-07T08:43:09;4.10;;;2.27;;
30157;SDS011;21203;-33.912;151.178;2023-04-07T08:45:42;5.15;;;2.47;;
30157;SDS011;21203;-33.912;151.178;2023-04-07T08:48:16;5.75;;;2.22;;
30157;SDS011;21203;-33.912;151.178;2023-04-07T08:50:48;3.55;;;2.15;;
30157;SDS011;21203;-33.912;151.178;2023-04-07T08:53:24;4.33;;;2.27;;
30157;SDS011;21203;-33.912;151.178;2023-04-07T08:55:50;4.08;;;2.10;;
30157;SDS011;21203;-33.912;151.178;2023-04-07T08:58:22;5.92;;;2.30;;
30157;SDS011;21203;-33.912;151.178;2023-04-07T09:00:53;2.25;;;1.65;;
30157;SDS011;21203;-33.912;151.178;2023-04-07T09:03:23;6.55;;;2.10;;
30157;SDS011;21203;-33.912;151.178;2023-04-07T09:05:55;4.30;;;2.15;;
30157;SDS011;21203;-33.912;151.178;2023-04-07T09:08:26;3.58;;;1.95;;
30157;SDS011;21203;-33.912;151.178;2023-04-07T09:10:57;4.60;;;1.85;;
30157;SDS011;21203;-33.912;151.178;2023-04-07T09:13:27;3.95;;;2.00;;
30157;SDS011;21203;-33.912;151.178;2023-04-07T09:15:58;5.03;;;1.82;;
30157;SDS011;21203;-33.912;151.178;2023-04-07T09:18:29;4.08;;;2.02;;
30157;SDS011;21203;-33.912;151.178;2023-04-07T09:21:03;3.15;;;1.75;;
30157;SDS011;21203;-33.912;151.178;2023-04-07T09:26:19;4.28;;;2.42;;
30157;SDS011;21203;-33.912;151.178;2023-04-07T09:28:54;6.67;;;2.52;;
30157;SDS011;21203;-33.912;151.178;2023-04-07T09:37:01;3.47;;;2.30;;
30157;SDS011;21203;-33.912;151.178;2023-04-07T09:39:32;5.35;;;2.75;;
30157;SDS011;21203;-33.912;151.178;2023-04-07T09:42:05;3.95;;;2.02;;
30157;SDS011;21203;-33.912;151.178;2023-04-07T09:44:38;7.30;;;2.35;;
30157;SDS011;21203;-33.912;151.178;2023-04-07T09:47:07;4.70;;;2.42;;
30157;SDS011;21203;-33.912;151.178;2023-04-07T09:49:53;5.80;;;2.12;;
30157;SDS011;21203;-33.912;151.178;2023-04-07T09:52:25;5.00;;;2.17;;
30157;SDS011;21203;-33.912;151.178;2023-04-07T09:55:13;4.40;;;2.00;;
30157;SDS011;21203;-33.912;151.178;2023-04-07T09:57:44;4.78;;;1.98;;
30157;SDS011;21203;-33.912;151.178;2023-04-07T10:00:16;3.02;;;2.10;;
30157;SDS011;21203;-33.912;151.178;2023-04-07T10:02:46;4.33;;;2.30;;
30157;SDS011;21203;-33.912;151.178;2023-04-07T10:05:17;4.70;;;2.72;;
30157;SDS011;21203;-33.912;151.178;2023-04-07T10:07:50;2.67;;;1.90;;
30157;SDS011;21203;-33.912;151.178;2023-04-07T10:10:21;3.30;;;1.80;;
30157;SDS011;21203;-33.912;151.178;2023-04-07T10:12:52;1.70;;;1.52;;
30157;SDS011;21203;-33.912;151.178;2023-04-07T10:15:24;3.27;;;1.50;;
30157;SDS011;21203;-33.912;151.178;2023-04-07T10:17:57;2.37;;;1.35;;
30157;SDS011;21203;-33.912;151.178;2023-04-07T10:20:32;2.37;;;1.52;;
30157;SDS011;21203;-33.912;151.178;2023-04-07T10:23:04;3.10;;;1.80;;
30157;SDS011;21203;-33.912;151.178;2023-04-07T10:25:35;4.08;;;1.70;;
30157;SDS011;21203;-33.912;151.178;2023-04-07T10:28:07;3.08;;;1.67;;
30157;SDS011;21203;-33.912;151.178;2023-04-07T10:30:39;3.42;;;1.62;;
30157;SDS011;21203;-33.912;151.178;2023-04-07T10:33:11;3.25;;;1.75;;
30157;SDS011;21203;-33.912;151.178;2023-04-07T10:36:01;3.35;;;1.67;;
30157;SDS011;21203;-33.912;151.178;2023-04-07T10:38:25;3.70;;;1.52;;
30157;SDS011;21203;-33.912;151.178;2023-04-07T10:40:56;2.40;;;1.62;;
30157;SDS011;21203;-33.912;151.178;2023-04-07T10:43:36;1.80;;;1.50;;
30157;SDS011;21203;-33.912;151.178;2023-04-07T10:46:07;3.83;;;1.47;;
30157;SDS011;21203;-33.912;151.178;2023-04-07T10:48:38;3.10;;;1.12;;
30157;SDS011;21203;-33.912;151.178;2023-04-07T10:51:11;3.22;;;1.70;;
30157;SDS011;21203;-33.912;151.178;2023-04-07T10:54:28;1.85;;;1.17;;
30157;SDS011;21203;-33.912;151.178;2023-04-07T10:59:32;2.65;;;1.10;;
30157;SDS011;21203;-33.912;151.178;2023-04-07T11:04:46;2.87;;;1.35;;
30157;SDS011;21203;-33.912;151.178;2023-04-07T11:07:17;3.12;;;1.25;;
30157;SDS011;21203;-33.912;151.178;2023-04-07T11:09:48;2.10;;;1.40;;
30157;SDS011;21203;-33.912;151.178;2023-04-07T11:12:21;3.75;;;1.55;;
30157;SDS011;21203;-33.912;151.178;2023-04-07T11:14:52;3.35;;;1.20;;
30157;SDS011;21203;-33.912;151.178;2023-04-07T11:17:23;3.27;;;1.32;;
30157;SDS011;21203;-33.912;151.178;2023-04-07T11:19:53;2.45;;;1.42;;
30157;SDS011;21203;-33.912;151.178;2023-04-07T11:22:24;2.42;;;1.10;;
30157;SDS011;21203;-33.912;151.178;2023-04-07T11:24:54;1.60;;;1.20;;
30157;SDS011;21203;-33.912;151.178;2023-04-07T11:27:24;2.67;;;1.32;;
30157;SDS011;21203;-33.912;151.178;2023-04-07T11:29:56;1.65;;;1.30;;
30157;SDS011;21203;-33.912;151.178;2023-04-07T11:32:27;2.45;;;1.27;;
30157;SDS011;21203;-33.912;151.178;2023-04-07T11:34:58;2.72;;;1.50;;
30157;SDS011;21203;-33.912;151.178;2023-04-07T11:37:28;2.30;;;1.30;;
30157;SDS011;21203;-33.912;151.178;2023-04-07T11:40:00;2.17;;;1.37;;
30157;SDS011;21203;-33.912;151.178;2023-04-07T11:42:37;2.20;;;1.77;;
30157;SDS011;21203;-33.912;151.178;2023-04-07T11:45:17;4.40;;;1.77;;
30157;SDS011;21203;-33.912;151.178;2023-04-07T11:47:47;3.05;;;1.60;;
30157;SDS011;21203;-33.912;151.178;2023-04-07T11:50:36;2.50;;;1.62;;
30157;SDS011;21203;-33.912;151.178;2023-04-07T11:53:07;2.72;;;1.60;;
30157;SDS011;21203;-33.912;151.178;2023-04-07T11:55:38;1.80;;;1.50;;
30157;SDS011;21203;-33.912;151.178;2023-04-07T11:58:08;3.33;;;1.75;;
30157;SDS011;21203;-33.912;151.178;2023-04-07T12:00:51;2.65;;;1.65;;
30157;SDS011;21203;-33.912;151.178;2023-04-07T12:03:27;2.72;;;1.80;;
30157;SDS011;21203;-33.912;151.178;2023-04-07T12:05:57;2.22;;;1.90;;
30157;SDS011;21203;-33.912;151.178;2023-04-07T12:08:49;2.45;;;1.85;;
30157;SDS011;21203;-33.912;151.178;2023-04-07T12:11:11;3.67;;;1.62;;
30157;SDS011;21203;-33.912;151.178;2023-04-07T12:13:42;4.12;;;1.95;;
30157;SDS011;21203;-33.912;151.178;2023-04-07T12:16:12;2.90;;;1.75;;
30157;SDS011;21203;-33.912;151.178;2023-04-07T12:18:43;3.47;;;1.70;;
30157;SDS011;21203;-33.912;151.178;2023-04-07T12:21:14;4.72;;;2.30;;
30157;SDS011;21203;-33.912;151.178;2023-04-07T12:23:44;2.45;;;1.75;;
30157;SDS011;21203;-33.912;151.178;2023-04-07T12:26:14;7.20;;;1.87;;
30157;SDS011;21203;-33.912;151.178;2023-04-07T12:28:45;3.33;;;2.00;;
30157;SDS011;21203;-33.912;151.178;2023-04-07T12:31:16;3.95;;;2.15;;
30157;SDS011;21203;-33.912;151.178;2023-04-07T12:33:46;2.52;;;2.00;;
30157;SDS011;21203;-33.912;151.178;2023-04-07T12:36:17;2.75;;;1.98;;
30157;SDS011;21203;-33.912;151.178;2023-04-07T12:38:47;2.50;;;1.80;;
30157;SDS011;21203;-33.912;151.178;2023-04-07T12:41:18;2.90;;;2.22;;
30157;SDS011;21203;-33.912;151.178;2023-04-07T12:43:49;7.00;;;2.37;;
30157;SDS011;21203;-33.912;151.178;2023-04-07T12:46:20;4.30;;;2.52;;
30157;SDS011;21203;-33.912;151.178;2023-04-07T12:48:50;6.37;;;2.40;;
30157;SDS011;21203;-33.912;151.178;2023-04-07T12:51:21;4.17;;;2.30;;
30157;SDS011;21203;-33.912;151.178;2023-04-07T12:53:51;8.03;;;2.58;;
30157;SDS011;21203;-33.912;151.178;2023-04-07T12:56:22;3.90;;;2.77;;
30157;SDS011;21203;-33.912;151.178;2023-04-07T12:58:53;6.20;;;2.95;;
30157;SDS011;21203;-33.912;151.178;2023-04-07T13:01:24;5.10;;;2.70;;
30157;SDS011;21203;-33.912;151.178;2023-04-07T13:03:54;3.10;;;2.40;;
30157;SDS011;21203;-33.912;151.178;2023-04-07T13:06:24;2.60;;;2.40;;
30157;SDS011;21203;-33.912;151.178;2023-04-07T13:08:55;3.52;;;2.20;;
30157;SDS011;21203;-33.912;151.178;2023-04-07T13:11:26;3.72;;;2.55;;
30157;SDS011;21203;-33.912;151.178;2023-04-07T13:13:56;3.05;;;2.22;;
30157;SDS011;21203;-33.912;151.178;2023-04-07T13:16:27;3.75;;;2.37;;
30157;SDS011;21203;-33.912;151.178;2023-04-07T13:18:57;3.17;;;2.20;;
30157;SDS011;21203;-33.912;151.178;2023-04-07T13:21:27;4.50;;;2.00;;
30157;SDS011;21203;-33.912;151.178;2023-04-07T13:23:58;3.12;;;2.10;;
30157;SDS011;21203;-33.912;151.178;2023-04-07T13:26:28;3.40;;;2.25;;
30157;SDS011;21203;-33.912;151.178;2023-04-07T13:28:58;2.85;;;1.82;;
30157;SDS011;21203;-33.912;151.178;2023-04-07T13:31:29;2.65;;;1.98;;
30157;SDS011;21203;-33.912;151.178;2023-04-07T13:33:59;1.95;;;1.60;;
30157;SDS011;21203;-33.912;151.178;2023-04-07T13:36:30;3.10;;;1.90;;
30157;SDS011;21203;-33.912;151.178;2023-04-07T13:39:00;4.15;;;1.82;;
30157;SDS011;21203;-33.912;151.178;2023-04-07T13:41:31;3.52;;;1.80;;
30157;SDS011;21203;-33.912;151.178;2023-04-07T13:44:01;7.60;;;1.90;;
30157;SDS011;21203;-33.912;151.178;2023-04-07T13:46:32;3.02;;;1.57;;
30157;SDS011;21203;-33.912;151.178;2023-04-07T13:49:02;3.83;;;1.90;;
30157;SDS011;21203;-33.912;151.178;2023-04-07T13:51:33;2.92;;;1.60;;
30157;SDS011;21203;-33.912;151.178;2023-04-07T13:54:03;3.72;;;2.17;;
30157;SDS011;21203;-33.912;151.178;2023-04-07T13:56:34;2.50;;;1.60;;
30157;SDS011;21203;-33.912;151.178;2023-04-07T14:01:53;2.80;;;1.60;;
30157;SDS011;21203;-33.912;151.178;2023-04-07T14:04:23;6.22;;;2.42;;
30157;SDS011;21203;-33.912;151.178;2023-04-07T14:06:54;4.85;;;2.92;;
30157;SDS011;21203;-33.912;151.178;2023-04-07T14:09:25;3.52;;;1.90;;
30157;SDS011;21203;-33.912;151.178;2023-04-07T14:11:55;5.35;;;1.80;;
30157;SDS011;21203;-33.912;151.178;2023-04-07T14:14:26;2.52;;;1.60;;
30157;SDS011;21203;-33.912;151.178;2023-04-07T14:16:56;4.17;;;1.82;;
30157;SDS011;21203;-33.912;151.178;2023-04-07T14:19:26;3.08;;;1.82;;
30157;SDS011;21203;-33.912;151.178;2023-04-07T14:21:56;3.80;;;1.92;;
30157;SDS011;21203;-33.912;151.178;2023-04-07T14:24:27;1.75;;;1.50;;
30157;SDS011;21203;-33.912;151.178;2023-04-07T14:26:57;4.12;;;1.87;;
30157;SDS011;21203;-33.912;151.178;2023-04-07T14:29:29;4.12;;;1.72;;
30157;SDS011;21203;-33.912;151.178;2023-04-07T14:31:59;4.25;;;2.10;;
30157;SDS011;21203;-33.912;151.178;2023-04-07T14:34:30;2.00;;;1.60;;
30157;SDS011;21203;-33.912;151.178;2023-04-07T14:37:01;2.98;;;1.72;;
30157;SDS011;21203;-33.912;151.178;2023-04-07T14:39:31;4.50;;;2.30;;
30157;SDS011;21203;-33.912;151.178;2023-04-07T14:42:02;3.62;;;1.70;;
30157;SDS011;21203;-33.912;151.178;2023-04-07T14:44:33;3.90;;;1.82;;
30157;SDS011;21203;-33.912;151.178;2023-04-07T14:47:03;3.80;;;1.70;;
30157;SDS011;21203;-33.912;151.178;2023-04-07T14:49:33;3.17;;;2.02;;
30157;SDS011;21203;-33.912;151.178;2023-04-07T14:52:04;6.00;;;2.12;;
30157;SDS011;21203;-33.912;151.178;2023-04-07T14:54:34;3.10;;;1.80;;
30157;SDS011;21203;-33.912;151.178;2023-04-07T14:57:05;3.47;;;2.02;;
30157;SDS011;21203;-33.912;151.178;2023-04-07T14:59:35;4.67;;;2.20;;